Flugplatz Lahr (EDTL)

Hier findest Du alle Informationen zum Flugplatz Lahr (EDTL).

Informationen für Piloten zum Flugplatz Lahr

Hier findest Du alle relevanten Informationen, die Du als Pilot benötigst, um Lahr anzufliegen.

Flugplatz: Lahr ICAO-Code: EDTL
Frequenz Turm: 125,180 Mhz GAFOR Gebiet: 51
Frequenz Ground: 125,180 Mhz Mogas: nein
Platzrunde: W 1500 ft Landegebühr: -
Platzhöhe: - Sunrise: 03:31 Uhr UTC
Pisten: 03/21 - 3.000 m x 45 m, ASPH Sunset: 19:34 Uhr UTC

Mitglieder, die in Lahr fliegen

Flugwetter am Flugplatz Lahr

Die METAR Information stammen aus EDTL.

METAR Code:
2020/06/19 14:50
EDTL 191450Z 20004KT 150V240 CAVOK 21/11 Q1018

Temperatur: 17,4 °C Niederschlag: - Wind: 2,9 kt
Temperatur (min.): 14,4 °C Luftdruck: 1019 hPa Windrichtung: 240 °
Temperatur (max.): 19,0 °C Luftfeuchtigkeit: 63 % Bewölkung: 2/8

Flugschulen am Flugplatz Lahr

Am Flugplatz Lahr gibt es leider keine Flugschule.

Benachbarte Flugplätze und Flugschulen

Es gibt 7 weitere Flugplätze in einem Umkreis von 50 km um den Flugplatz Lahr.

Jetzt anmelden

Passwort vergessen

Umfrage Archiv

Wären Rettungsgeräte keine Pflicht mehr, würdet Ihr Euer UL trotzdem mit einem ausstatten?

Ja
81.1 %
Nein
18.9 %
Stimmen: 185 | Diskussion
Anzeige: Roland Aircraft
Statistik Alle Mitglieder

Aktuell sind 33 Besucher online, davon 2 Mitglieder und 31 Gäste.


Mitglieder online:
Heli  raller 

Anzeige: VFR Sprechfunk Simulator


Anzeige: Pocket FMS